Terminal Aerodrome Forecast
Issued by NWS Sioux Falls, SD

Home | Current Version | Previous Version | Graphics & Text | Print | Product List | Glossary On
Versions: 1 2 3 4 5 6 7 8 9 10 11 12 13 14 15 16 17 18
000
FTUS43 KFSD 170521
TAFFSD
TAF
KFSD 170521Z 1706/1806 19012KT P6SM BKN090
     FM170800 20009KT 4SM -SN OVC040
     FM171000 21008KT P6SM -SN OVC070
     FM171200 23004KT P6SM BKN150
     FM171700 29013G18KT P6SM BKN200
     FM180000 29009KT P6SM FEW250
     FM180300 17005KT P6SM FEW250=

USA.gov is the U.S. government's official web portal to all federal, state and local government web resources and services.